sensor_id;sensor_type;location;lat;lon;timestamp;pressure;altitude;pressure_sealevel;temperature;humidity
82951;BME280;72737;53.332;6.514;2024-01-11T00:00:36;103409.56;;;13.57;49.24
82951;BME280;72737;53.332;6.514;2024-01-11T00:03:02;103403.47;;;13.55;48.64
82951;BME280;72737;53.332;6.514;2024-01-11T00:05:28;103392.31;;;13.57;48.86
82951;BME280;72737;53.332;6.514;2024-01-11T00:07:53;103394.91;;;13.52;49.24
82951;BME280;72737;53.332;6.514;2024-01-11T00:10:18;103395.25;;;13.55;48.91
82951;BME280;72737;53.332;6.514;2024-01-11T00:12:44;103393.22;;;13.87;52.35
82951;BME280;72737;53.332;6.514;2024-01-11T00:15:09;103404.03;;;14.12;51.84
82951;BME280;72737;53.332;6.514;2024-01-11T00:17:35;103393.59;;;14.21;50.45
82951;BME280;72737;53.332;6.514;2024-01-11T00:20:01;103395.84;;;14.24;49.82
82951;BME280;72737;53.332;6.514;2024-01-11T00:22:26;103396.97;;;14.34;49.90
82951;BME280;72737;53.332;6.514;2024-01-11T00:24:52;103392.13;;;14.36;49.07
82951;BME280;72737;53.332;6.514;2024-01-11T00:27:17;103398.34;;;14.43;49.04
82951;BME280;72737;53.332;6.514;2024-01-11T00:29:43;103396.56;;;14.49;48.55
82951;BME280;72737;53.332;6.514;2024-01-11T00:32:09;103393.50;;;14.57;48.67
82951;BME280;72737;53.332;6.514;2024-01-11T00:34:34;103394.56;;;14.56;49.31
82951;BME280;72737;53.332;6.514;2024-01-11T00:37:01;103379.47;;;14.53;49.40
82951;BME280;72737;53.332;6.514;2024-01-11T00:39:26;103392.00;;;14.73;48.74
82951;BME280;72737;53.332;6.514;2024-01-11T00:41:52;103387.94;;;14.75;49.08
82951;BME280;72737;53.332;6.514;2024-01-11T00:44:17;103391.03;;;14.79;49.33
82951;BME280;72737;53.332;6.514;2024-01-11T00:46:42;103383.19;;;14.82;49.63
82951;BME280;72737;53.332;6.514;2024-01-11T00:49:08;103378.31;;;14.84;49.78
82951;BME280;72737;53.332;6.514;2024-01-11T00:51:33;103361.03;;;14.84;50.00
82951;BME280;72737;53.332;6.514;2024-01-11T00:53:58;103362.50;;;14.86;50.06
82951;BME280;72737;53.332;6.514;2024-01-11T00:56:24;103368.69;;;14.93;49.84
82951;BME280;72737;53.332;6.514;2024-01-11T00:58:49;103359.66;;;14.93;50.05
82951;BME280;72737;53.332;6.514;2024-01-11T01:01:15;103373.22;;;14.88;49.72
82951;BME280;72737;53.332;6.514;2024-01-11T01:03:40;103385.22;;;14.87;49.57
82951;BME280;72737;53.332;6.514;2024-01-11T01:06:06;103387.84;;;14.82;49.72
82951;BME280;72737;53.332;6.514;2024-01-11T01:08:31;103379.50;;;14.77;49.73
82951;BME280;72737;53.332;6.514;2024-01-11T01:10:57;103371.63;;;14.80;49.17
82951;BME280;72737;53.332;6.514;2024-01-11T01:13:22;103378.88;;;14.75;49.13
82951;BME280;72737;53.332;6.514;2024-01-11T01:15:48;103373.78;;;14.67;49.04
82951;BME280;72737;53.332;6.514;2024-01-11T01:18:13;103371.88;;;14.67;48.03
82951;BME280;72737;53.332;6.514;2024-01-11T01:20:39;103380.31;;;14.66;48.10
82951;BME280;72737;53.332;6.514;2024-01-11T01:23:04;103379.13;;;14.62;47.81
82951;BME280;72737;53.332;6.514;2024-01-11T01:25:29;103379.00;;;14.56;48.56
82951;BME280;72737;53.332;6.514;2024-01-11T01:27:55;103365.78;;;14.53;48.21
82951;BME280;72737;53.332;6.514;2024-01-11T01:30:22;103367.91;;;14.51;47.79
82951;BME280;72737;53.332;6.514;2024-01-11T01:32:48;103368.97;;;14.50;47.69
82951;BME280;72737;53.332;6.514;2024-01-11T01:35:14;103355.94;;;14.34;47.71
82951;BME280;72737;53.332;6.514;2024-01-11T01:37:39;103372.91;;;14.43;47.49
82951;BME280;72737;53.332;6.514;2024-01-11T01:40:05;103371.44;;;14.40;47.08
82951;BME280;72737;53.332;6.514;2024-01-11T01:42:32;103373.00;;;14.36;47.28
82951;BME280;72737;53.332;6.514;2024-01-11T01:44:58;103367.13;;;14.33;47.67
82951;BME280;72737;53.332;6.514;2024-01-11T01:47:24;103361.28;;;14.29;47.39
82951;BME280;72737;53.332;6.514;2024-01-11T01:49:49;103356.50;;;14.25;47.37
82951;BME280;72737;53.332;6.514;2024-01-11T01:52:15;103351.88;;;14.25;47.36
82951;BME280;72737;53.332;6.514;2024-01-11T01:54:41;103361.63;;;14.21;47.39
82951;BME280;72737;53.332;6.514;2024-01-11T01:57:08;103365.63;;;14.18;47.22
82951;BME280;72737;53.332;6.514;2024-01-11T01:59:34;103357.06;;;14.15;47.01
82951;BME280;72737;53.332;6.514;2024-01-11T02:02:00;103360.28;;;14.12;46.43
82951;BME280;72737;53.332;6.514;2024-01-11T02:04:25;103355.25;;;14.09;46.88
82951;BME280;72737;53.332;6.514;2024-01-11T02:06:53;103372.50;;;14.09;47.11
82951;BME280;72737;53.332;6.514;2024-01-11T02:09:19;103348.00;;;14.03;46.90
82951;BME280;72737;53.332;6.514;2024-01-11T02:11:44;103351.31;;;14.05;47.03
82951;BME280;72737;53.332;6.514;2024-01-11T02:14:10;103365.47;;;14.02;46.87
82951;BME280;72737;53.332;6.514;2024-01-11T02:16:36;103344.66;;;14.01;46.29
82951;BME280;72737;53.332;6.514;2024-01-11T02:19:04;103354.97;;;13.99;46.73
82951;BME280;72737;53.332;6.514;2024-01-11T02:21:30;103366.59;;;13.94;46.21
82951;BME280;72737;53.332;6.514;2024-01-11T02:24:04;103360.78;;;13.91;46.11
82951;BME280;72737;53.332;6.514;2024-01-11T02:26:30;103361.63;;;13.91;46.68
82951;BME280;72737;53.332;6.514;2024-01-11T02:28:56;103365.41;;;13.90;45.85
82951;BME280;72737;53.332;6.514;2024-01-11T02:31:21;103371.09;;;13.89;45.89
82951;BME280;72737;53.332;6.514;2024-01-11T02:33:47;103370.50;;;13.87;45.89
82951;BME280;72737;53.332;6.514;2024-01-11T02:36:13;103369.16;;;13.78;46.13
82951;BME280;72737;53.332;6.514;2024-01-11T02:38:39;103375.84;;;13.82;46.38
82951;BME280;72737;53.332;6.514;2024-01-11T02:41:07;103378.56;;;13.82;46.17
82951;BME280;72737;53.332;6.514;2024-01-11T02:43:32;103367.69;;;13.75;46.02
82951;BME280;72737;53.332;6.514;2024-01-11T02:45:58;103361.41;;;13.74;45.88
82951;BME280;72737;53.332;6.514;2024-01-11T02:48:28;103372.34;;;13.74;45.73
82951;BME280;72737;53.332;6.514;2024-01-11T02:50:54;103367.13;;;13.73;45.94
82951;BME280;72737;53.332;6.514;2024-01-11T02:53:19;103371.13;;;13.70;46.18
82951;BME280;72737;53.332;6.514;2024-01-11T02:55:45;103369.91;;;13.66;45.88
82951;BME280;72737;53.332;6.514;2024-01-11T02:58:10;103376.66;;;13.64;45.63
82951;BME280;72737;53.332;6.514;2024-01-11T03:00:36;103376.66;;;13.64;46.23
82951;BME280;72737;53.332;6.514;2024-01-11T03:03:01;103374.41;;;13.61;45.75
82951;BME280;72737;53.332;6.514;2024-01-11T03:05:26;103376.28;;;13.60;45.74
82951;BME280;72737;53.332;6.514;2024-01-11T03:07:52;103365.84;;;13.57;45.46
82951;BME280;72737;53.332;6.514;2024-01-11T03:10:17;103379.50;;;13.57;45.81
82951;BME280;72737;53.332;6.514;2024-01-11T03:12:43;103377.19;;;13.54;45.85
82951;BME280;72737;53.332;6.514;2024-01-11T03:15:08;103380.78;;;13.55;45.74
82951;BME280;72737;53.332;6.514;2024-01-11T03:17:34;103374.31;;;13.49;45.70
82951;BME280;72737;53.332;6.514;2024-01-11T03:19:59;103379.34;;;13.52;45.86
82951;BME280;72737;53.332;6.514;2024-01-11T03:22:25;103366.59;;;13.46;45.84
82951;BME280;72737;53.332;6.514;2024-01-11T03:24:50;103361.50;;;13.50;45.48
82951;BME280;72737;53.332;6.514;2024-01-11T03:27:15;103341.38;;;13.44;45.95
82951;BME280;72737;53.332;6.514;2024-01-11T03:29:41;103351.03;;;13.47;45.24
82951;BME280;72737;53.332;6.514;2024-01-11T03:32:06;103353.84;;;13.40;46.12
82951;BME280;72737;53.332;6.514;2024-01-11T03:34:32;103355.50;;;13.41;45.82
82951;BME280;72737;53.332;6.514;2024-01-11T03:36:57;103371.91;;;13.41;45.53
82951;BME280;72737;53.332;6.514;2024-01-11T03:39:24;103361.19;;;13.40;45.38
82951;BME280;72737;53.332;6.514;2024-01-11T03:41:50;103362.66;;;13.42;45.72
82951;BME280;72737;53.332;6.514;2024-01-11T03:44:15;103368.53;;;13.39;45.48
82951;BME280;72737;53.332;6.514;2024-01-11T03:46:41;103370.06;;;13.35;45.85
82951;BME280;72737;53.332;6.514;2024-01-11T03:49:06;103357.78;;;13.44;45.15
82951;BME280;72737;53.332;6.514;2024-01-11T03:51:33;103356.72;;;13.45;45.40
82951;BME280;72737;53.332;6.514;2024-01-11T03:53:58;103361.56;;;13.43;45.87
82951;BME280;72737;53.332;6.514;2024-01-11T03:56:24;103371.91;;;13.41;45.33
82951;BME280;72737;53.332;6.514;2024-01-11T03:58:49;103359.44;;;13.45;45.02
82951;BME280;72737;53.332;6.514;2024-01-11T04:01:14;103356.72;;;13.45;45.17
82951;BME280;72737;53.332;6.514;2024-01-11T04:03:41;103354.69;;;13.41;45.58
82951;BME280;72737;53.332;6.514;2024-01-11T04:06:07;103362.19;;;13.45;45.08
82951;BME280;72737;53.332;6.514;2024-01-11T04:08:32;103360.28;;;13.46;45.22
82951;BME280;72737;53.332;6.514;2024-01-11T04:10:57;103357.78;;;13.44;45.39
82951;BME280;72737;53.332;6.514;2024-01-11T04:13:23;103367.19;;;13.48;45.24
82951;BME280;72737;53.332;6.514;2024-01-11T04:15:49;103345.78;;;13.45;44.80
82951;BME280;72737;53.332;6.514;2024-01-11T04:18:14;103354.00;;;13.45;44.98
82951;BME280;72737;53.332;6.514;2024-01-11T04:20:40;103347.00;;;13.49;45.25
82951;BME280;72737;53.332;6.514;2024-01-11T04:23:05;103360.06;;;13.47;44.96
82951;BME280;72737;53.332;6.514;2024-01-11T04:25:31;103368.63;;;13.51;45.12
82951;BME280;72737;53.332;6.514;2024-01-11T04:27:56;103375.53;;;13.53;44.81
82951;BME280;72737;53.332;6.514;2024-01-11T04:30:22;103370.06;;;13.53;45.13
82951;BME280;72737;53.332;6.514;2024-01-11T04:32:47;103372.06;;;13.46;45.18
82951;BME280;72737;53.332;6.514;2024-01-11T04:35:12;103372.78;;;13.53;45.31
82951;BME280;72737;53.332;6.514;2024-01-11T04:37:38;103383.50;;;13.55;45.24
82951;BME280;72737;53.332;6.514;2024-01-11T04:40:03;103392.53;;;13.55;44.97
82951;BME280;72737;53.332;6.514;2024-01-11T04:42:29;103404.31;;;13.56;45.18
82951;BME280;72737;53.332;6.514;2024-01-11T04:44:54;103389.50;;;13.45;44.99
82951;BME280;72737;53.332;6.514;2024-01-11T04:47:20;103407.03;;;13.56;45.22
82951;BME280;72737;53.332;6.514;2024-01-11T04:49:45;103396.94;;;13.56;45.58
82951;BME280;72737;53.332;6.514;2024-01-11T04:52:11;103386.44;;;13.53;44.78
82951;BME280;72737;53.332;6.514;2024-01-11T04:54:36;103388.75;;;13.56;45.23
82951;BME280;72737;53.332;6.514;2024-01-11T04:57:03;103385.41;;;13.54;45.19
82951;BME280;72737;53.332;6.514;2024-01-11T04:59:28;103391.47;;;13.56;45.16
82951;BME280;72737;53.332;6.514;2024-01-11T05:01:54;103390.84;;;13.54;45.09
82951;BME280;72737;53.332;6.514;2024-01-11T05:04:19;103397.16;;;13.55;44.57
82951;BME280;72737;53.332;6.514;2024-01-11T05:06:44;103398.00;;;13.55;44.74
82951;BME280;72737;53.332;6.514;2024-01-11T05:09:10;103399.91;;;13.55;44.89
82951;BME280;72737;53.332;6.514;2024-01-11T05:11:35;103393.38;;;13.56;45.13
82951;BME280;72737;53.332;6.514;2024-01-11T05:14:00;103390.72;;;13.49;45.12
82951;BME280;72737;53.332;6.514;2024-01-11T05:16:27;103386.09;;;13.50;45.22
82951;BME280;72737;53.332;6.514;2024-01-11T05:18:54;103383.56;;;13.48;44.94
82951;BME280;72737;53.332;6.514;2024-01-11T05:21:19;103392.75;;;13.54;44.51
82951;BME280;72737;53.332;6.514;2024-01-11T05:23:45;103385.66;;;13.53;44.57
82951;BME280;72737;53.332;6.514;2024-01-11T05:26:12;103388.59;;;13.51;45.19
82951;BME280;72737;53.332;6.514;2024-01-11T05:28:37;103378.56;;;13.45;44.64
82951;BME280;72737;53.332;6.514;2024-01-11T05:31:06;103382.75;;;13.48;45.01
82951;BME280;72737;53.332;6.514;2024-01-11T05:33:32;103380.41;;;13.51;45.17
82951;BME280;72737;53.332;6.514;2024-01-11T05:35:58;103384.03;;;13.45;44.89
82951;BME280;72737;53.332;6.514;2024-01-11T05:38:23;103371.00;;;13.47;44.69
82951;BME280;72737;53.332;6.514;2024-01-11T05:40:48;103373.72;;;13.47;44.74
82951;BME280;72737;53.332;6.514;2024-01-11T05:43:14;103383.81;;;13.47;45.39
82951;BME280;72737;53.332;6.514;2024-01-11T05:45:39;103380.69;;;13.43;44.81
82951;BME280;72737;53.332;6.514;2024-01-11T05:48:05;103369.31;;;13.46;45.04
82951;BME280;72737;53.332;6.514;2024-01-11T05:50:31;103373.94;;;13.46;44.66
82951;BME280;72737;53.332;6.514;2024-01-11T05:52:56;103358.69;;;13.38;44.82
82951;BME280;72737;53.332;6.514;2024-01-11T05:55:22;103379.03;;;13.42;45.09
82951;BME280;72737;53.332;6.514;2024-01-11T05:57:48;103365.22;;;13.37;44.86
82951;BME280;72737;53.332;6.514;2024-01-11T06:00:13;103367.72;;;13.39;45.30
82951;BME280;72737;53.332;6.514;2024-01-11T06:02:39;103374.47;;;13.36;44.74
82951;BME280;72737;53.332;6.514;2024-01-11T06:05:08;103375.69;;;13.40;44.96
82951;BME280;72737;53.332;6.514;2024-01-11T06:07:33;103374.84;;;13.40;44.88
82951;BME280;72737;53.332;6.514;2024-01-11T06:09:59;103366.06;;;13.38;44.90
82951;BME280;72737;53.332;6.514;2024-01-11T06:12:26;103359.50;;;13.39;44.59
82951;BME280;72737;53.332;6.514;2024-01-11T06:14:51;103370.44;;;13.39;45.13
82951;BME280;72737;53.332;6.514;2024-01-11T06:17:17;103362.50;;;13.37;44.52
82951;BME280;72737;53.332;6.514;2024-01-11T06:19:42;103352.41;;;13.38;44.61
82951;BME280;72737;53.332;6.514;2024-01-11T06:22:08;103355.13;;;13.38;44.51
82951;BME280;72737;53.332;6.514;2024-01-11T06:24:33;103350.13;;;13.35;44.75
82951;BME280;72737;53.332;6.514;2024-01-11T06:26:59;103350.72;;;13.37;44.87
82951;BME280;72737;53.332;6.514;2024-01-11T06:29:24;103348.84;;;13.37;44.48
82951;BME280;72737;53.332;6.514;2024-01-11T06:31:49;103341.34;;;13.32;44.76
82951;BME280;72737;53.332;6.514;2024-01-11T06:34:15;103341.69;;;13.36;44.57
82951;BME280;72737;53.332;6.514;2024-01-11T06:36:40;103334.56;;;13.35;44.72
82951;BME280;72737;53.332;6.514;2024-01-11T06:39:05;103327.00;;;13.37;44.74
82951;BME280;72737;53.332;6.514;2024-01-11T06:41:31;103320.91;;;13.35;45.14
82951;BME280;72737;53.332;6.514;2024-01-11T06:43:56;103318.81;;;13.37;44.51
82951;BME280;72737;53.332;6.514;2024-01-11T06:46:21;103320.28;;;13.33;44.86
82951;BME280;72737;53.332;6.514;2024-01-11T06:48:47;103315.44;;;13.35;44.90
82951;BME280;72737;53.332;6.514;2024-01-11T06:51:14;103333.03;;;13.39;45.00
82951;BME280;72737;53.332;6.514;2024-01-11T06:53:40;103337.28;;;13.35;45.15
82951;BME280;72737;53.332;6.514;2024-01-11T06:56:14;103333.50;;;13.36;44.66
82951;BME280;72737;53.332;6.514;2024-01-11T06:58:39;103337.91;;;13.37;44.39
82951;BME280;72737;53.332;6.514;2024-01-11T07:01:05;103333.72;;;13.35;44.59
82951;BME280;72737;53.332;6.514;2024-01-11T07:03:30;103345.94;;;13.32;44.57
82951;BME280;72737;53.332;6.514;2024-01-11T07:05:56;103341.09;;;13.34;45.04
82951;BME280;72737;53.332;6.514;2024-01-11T07:08:21;103361.41;;;13.38;45.14
82951;BME280;72737;53.332;6.514;2024-01-11T07:10:46;103353.22;;;13.38;44.85
82951;BME280;72737;53.332;6.514;2024-01-11T07:13:12;103366.06;;;13.38;45.12
82951;BME280;72737;53.332;6.514;2024-01-11T07:15:40;103354.31;;;13.37;45.00
82951;BME280;72737;53.332;6.514;2024-01-11T07:18:05;103351.56;;;13.37;44.81
82951;BME280;72737;53.332;6.514;2024-01-11T07:20:30;103352.16;;;13.39;44.78
82951;BME280;72737;53.332;6.514;2024-01-11T07:22:56;103345.03;;;13.38;44.49
82951;BME280;72737;53.332;6.514;2024-01-11T07:25:21;103340.66;;;13.37;45.24
82951;BME280;72737;53.332;6.514;2024-01-11T07:27:46;103329.09;;;13.35;44.67
82951;BME280;72737;53.332;6.514;2024-01-11T07:30:12;103325.31;;;13.36;44.58
82951;BME280;72737;53.332;6.514;2024-01-11T07:32:37;103335.78;;;13.39;45.15
82951;BME280;72737;53.332;6.514;2024-01-11T07:35:03;103337.66;;;13.39;45.12
82951;BME280;72737;53.332;6.514;2024-01-11T07:37:29;103343.97;;;13.39;44.67
82951;BME280;72737;53.332;6.514;2024-01-11T07:39:54;103345.03;;;13.38;44.43
82951;BME280;72737;53.332;6.514;2024-01-11T07:42:19;103341.22;;;13.39;44.62
82951;BME280;72737;53.332;6.514;2024-01-11T07:44:45;103336.81;;;13.38;44.67
82951;BME280;72737;53.332;6.514;2024-01-11T07:47:10;103345.50;;;13.35;44.81
82951;BME280;72737;53.332;6.514;2024-01-11T07:49:36;103343.97;;;13.39;44.98
82951;BME280;72737;53.332;6.514;2024-01-11T07:52:01;103343.97;;;13.39;44.61
82951;BME280;72737;53.332;6.514;2024-01-11T07:54:27;103352.16;;;13.39;44.49
82951;BME280;72737;53.332;6.514;2024-01-11T07:56:52;103346.09;;;13.37;44.94
82951;BME280;72737;53.332;6.514;2024-01-11T07:59:18;103345.03;;;13.38;44.69
82951;BME280;72737;53.332;6.514;2024-01-11T08:01:43;103346.69;;;13.39;44.51
82951;BME280;72737;53.332;6.514;2024-01-11T08:04:08;103338.59;;;13.32;44.54
82951;BME280;72737;53.332;6.514;2024-01-11T08:06:34;103350.72;;;13.37;44.82
82951;BME280;72737;53.332;6.514;2024-01-11T08:08:59;103354.88;;;13.39;44.81
82951;BME280;72737;53.332;6.514;2024-01-11T08:11:24;103359.09;;;13.42;44.34
82951;BME280;72737;53.332;6.514;2024-01-11T08:13:50;103371.06;;;13.41;44.54
82951;BME280;72737;53.332;6.514;2024-01-11T08:16:16;103364.13;;;13.38;44.66
82951;BME280;72737;53.332;6.514;2024-01-11T08:18:43;103343.38;;;13.37;44.85
82951;BME280;72737;53.332;6.514;2024-01-11T08:21:09;103349.06;;;13.36;44.92
82951;BME280;72737;53.332;6.514;2024-01-11T08:23:34;103354.88;;;13.39;44.90
82951;BME280;72737;53.332;6.514;2024-01-11T08:26:01;103353.22;;;13.38;44.94
82951;BME280;72737;53.332;6.514;2024-01-11T08:28:26;103350.47;;;13.38;45.08
82951;BME280;72737;53.332;6.514;2024-01-11T08:34:17;103351.56;;;13.37;44.47
82951;BME280;72737;53.332;6.514;2024-01-11T08:36:43;103348.84;;;13.37;44.53
82951;BME280;72737;53.332;6.514;2024-01-11T08:39:08;103335.03;;;13.32;44.80
82951;BME280;72737;53.332;6.514;2024-01-11T08:41:36;103338.50;;;13.39;45.09
82951;BME280;72737;53.332;6.514;2024-01-11T08:44:03;103330.00;;;13.29;44.53
82951;BME280;72737;53.332;6.514;2024-01-11T08:46:30;103332.44;;;13.37;45.08
82951;BME280;72737;53.332;6.514;2024-01-11T08:48:58;103328.63;;;13.38;44.53
82951;BME280;72737;53.332;6.514;2024-01-11T08:51:23;103334.94;;;13.39;44.72
82951;BME280;72737;53.332;6.514;2024-01-11T08:53:49;103321.13;;;13.33;44.79
82951;BME280;72737;53.332;6.514;2024-01-11T08:56:14;103330.16;;;13.34;44.70
82951;BME280;72737;53.332;6.514;2024-01-11T08:58:42;103330.41;;;13.32;44.94
82951;BME280;72737;53.332;6.514;2024-01-11T09:01:07;103340.66;;;13.37;44.81
82951;BME280;72737;53.332;6.514;2024-01-11T09:03:34;103342.75;;;13.35;45.00
82951;BME280;72737;53.332;6.514;2024-01-11T09:05:59;103346.09;;;13.37;44.51
82951;BME280;72737;53.332;6.514;2024-01-11T09:08:25;103352.16;;;13.39;45.24
82951;BME280;72737;53.332;6.514;2024-01-11T09:10:50;103345.03;;;13.38;44.56
82951;BME280;72737;53.332;6.514;2024-01-11T09:13:15;103347.16;;;13.36;44.66
82951;BME280;72737;53.332;6.514;2024-01-11T09:15:41;103351.56;;;13.37;45.00
82951;BME280;72737;53.332;6.514;2024-01-11T09:18:07;103346.69;;;13.39;45.11
82951;BME280;72737;53.332;6.514;2024-01-11T09:20:32;103347.75;;;13.38;44.79
82951;BME280;72737;53.332;6.514;2024-01-11T09:22:58;103345.84;;;13.39;44.68
82951;BME280;72737;53.332;6.514;2024-01-11T09:25:24;103367.72;;;13.39;44.86
82951;BME280;72737;53.332;6.514;2024-01-11T09:27:49;103356.78;;;13.39;45.36
82951;BME280;72737;53.332;6.514;2024-01-11T09:30:15;103369.00;;;13.36;44.78
82951;BME280;72737;53.332;6.514;2024-01-11T09:32:40;103373.16;;;13.39;45.04
82951;BME280;72737;53.332;6.514;2024-01-11T09:35:06;103369.84;;;13.37;44.85
82951;BME280;72737;53.332;6.514;2024-01-11T09:37:32;103376.75;;;13.39;45.12
82951;BME280;72737;53.332;6.514;2024-01-11T09:39:57;103381.16;;;13.40;45.02
82951;BME280;72737;53.332;6.514;2024-01-11T09:42:22;103381.16;;;13.40;44.86
82951;BME280;72737;53.332;6.514;2024-01-11T09:44:48;103374.25;;;13.38;44.62
82951;BME280;72737;53.332;6.514;2024-01-11T09:47:15;103385.78;;;13.40;44.85
82951;BME280;72737;53.332;6.514;2024-01-11T09:49:44;103374.00;;;13.39;44.63
82951;BME280;72737;53.332;6.514;2024-01-11T09:52:11;103383.72;;;13.35;44.55
82951;BME280;72737;53.332;6.514;2024-01-11T09:54:38;103369.59;;;13.38;44.73
82951;BME280;72737;53.332;6.514;2024-01-11T09:57:06;103365.22;;;13.37;45.06
82951;BME280;72737;53.332;6.514;2024-01-11T09:59:32;103357.72;;;13.32;44.83
82951;BME280;72737;53.332;6.514;2024-01-11T10:01:59;103378.63;;;13.39;44.51
82951;BME280;72737;53.332;6.514;2024-01-11T10:04:26;103367.72;;;13.39;44.72
82951;BME280;72737;53.332;6.514;2024-01-11T10:06:52;103364.13;;;13.38;45.15
82951;BME280;72737;53.332;6.514;2024-01-11T10:09:18;103366.66;;;13.40;44.82
82951;BME280;72737;53.332;6.514;2024-01-11T10:11:45;103365.22;;;13.37;44.68
82951;BME280;72737;53.332;6.514;2024-01-11T10:14:12;103366.88;;;13.38;44.98
82951;BME280;72737;53.332;6.514;2024-01-11T10:16:37;103369.38;;;13.40;45.39
82951;BME280;72737;53.332;6.514;2024-01-11T10:19:03;103355.34;;;13.36;45.01
82951;BME280;72737;53.332;6.514;2024-01-11T10:21:28;103363.78;;;13.35;44.88
82951;BME280;72737;53.332;6.514;2024-01-11T10:23:57;103356.03;;;13.31;44.69
82951;BME280;72737;53.332;6.514;2024-01-11T10:26:22;103366.06;;;13.38;45.17
82951;BME280;72737;53.332;6.514;2024-01-11T10:28:48;103347.16;;;13.36;45.13
82951;BME280;72737;53.332;6.514;2024-01-11T10:31:14;103358.84;;;13.43;44.54
82951;BME280;72737;53.332;6.514;2024-01-11T10:33:40;103338.75;;;13.38;44.73
82951;BME280;72737;53.332;6.514;2024-01-11T10:36:06;103332.44;;;13.37;45.10
82951;BME280;72737;53.332;6.514;2024-01-11T10:38:35;103330.31;;;13.39;45.41
82951;BME280;72737;53.332;6.514;2024-01-11T10:41:07;103341.22;;;13.39;44.94
82951;BME280;72737;53.332;6.514;2024-01-11T10:43:36;103344.44;;;13.36;45.14
82951;BME280;72737;53.332;6.514;2024-01-11T10:46:03;103339.81;;;13.37;44.88
82951;BME280;72737;53.332;6.514;2024-01-11T10:48:33;103334.50;;;13.42;45.52
82951;BME280;72737;53.332;6.514;2024-01-11T10:51:05;103331.78;;;13.42;45.21
82951;BME280;72737;53.332;6.514;2024-01-11T10:53:45;103324.00;;;13.39;44.88
82951;BME280;72737;53.332;6.514;2024-01-11T10:56:15;103319.84;;;13.36;45.33
82951;BME280;72737;53.332;6.514;2024-01-11T10:58:44;103319.38;;;13.39;45.01
82951;BME280;72737;53.332;6.514;2024-01-11T11:01:11;103319.84;;;13.36;45.11
82951;BME280;72737;53.332;6.514;2024-01-11T11:03:38;103334.50;;;13.42;45.54
82951;BME280;72737;53.332;6.514;2024-01-11T11:06:05;103317.13;;;13.36;44.98
82951;BME280;72737;53.332;6.514;2024-01-11T11:08:31;103319.16;;;13.41;45.50
82951;BME280;72737;53.332;6.514;2024-01-11T11:10:58;103320.84;;;13.42;44.94
82951;BME280;72737;53.332;6.514;2024-01-11T11:13:24;103312.25;;;13.38;45.03
82951;BME280;72737;53.332;6.514;2024-01-11T11:15:50;103303.25;;;13.38;45.43
82951;BME280;72737;53.332;6.514;2024-01-11T11:18:15;103315.97;;;13.44;44.83
82951;BME280;72737;53.332;6.514;2024-01-11T11:20:42;103312.41;;;13.43;45.44
82951;BME280;72737;53.332;6.514;2024-01-11T11:23:08;103303.63;;;13.41;45.33
82951;BME280;72737;53.332;6.514;2024-01-11T11:25:37;103299.69;;;13.37;44.81
82951;BME280;72737;53.332;6.514;2024-01-11T11:28:05;103293.75;;;13.40;45.09
82951;BME280;72737;53.332;6.514;2024-01-11T11:30:31;103290.41;;;13.38;45.31
82951;BME280;72737;53.332;6.514;2024-01-11T11:32:57;103306.34;;;13.41;44.91
82951;BME280;72737;53.332;6.514;2024-01-11T11:35:23;103306.78;;;13.38;45.41
82951;BME280;72737;53.332;6.514;2024-01-11T11:37:56;103284.78;;;13.33;44.99
82951;BME280;72737;53.332;6.514;2024-01-11T11:40:32;103289.34;;;13.39;45.01
82951;BME280;72737;53.332;6.514;2024-01-11T11:42:58;103301.47;;;13.43;45.24
82951;BME280;72737;53.332;6.514;2024-01-11T11:45:26;103303.41;;;13.43;45.10
82951;BME280;72737;53.332;6.514;2024-01-11T11:47:51;103293.28;;;13.43;45.06
82951;BME280;72737;53.332;6.514;2024-01-11T11:50:21;103288.94;;;13.54;45.89
82951;BME280;72737;53.332;6.514;2024-01-11T11:52:53;103285.50;;;13.58;45.82
82951;BME280;72737;53.332;6.514;2024-01-11T11:55:20;103272.09;;;13.57;46.25
82951;BME280;72737;53.332;6.514;2024-01-11T11:57:45;103286.41;;;13.70;46.45
82951;BME280;72737;53.332;6.514;2024-01-11T12:00:12;103282.41;;;13.73;45.94
82951;BME280;72737;53.332;6.514;2024-01-11T12:02:38;103285.50;;;13.58;45.92
82951;BME280;72737;53.332;6.514;2024-01-11T12:05:04;103265.97;;;13.43;46.20
82951;BME280;72737;53.332;6.514;2024-01-11T12:07:30;103279.19;;;13.46;46.12
82951;BME280;72737;53.332;6.514;2024-01-11T12:09:55;103287.38;;;13.46;46.13
82951;BME280;72737;53.332;6.514;2024-01-11T12:12:21;103284.03;;;13.44;46.70
82951;BME280;72737;53.332;6.514;2024-01-11T12:14:47;103279.47;;;13.38;46.85
82951;BME280;72737;53.332;6.514;2024-01-11T12:17:14;103272.81;;;13.34;46.92
82951;BME280;72737;53.332;6.514;2024-01-11T12:19:39;103284.13;;;13.38;47.04
82951;BME280;72737;53.332;6.514;2024-01-11T12:22:05;103269.63;;;13.37;46.84
82951;BME280;72737;53.332;6.514;2024-01-11T12:24:30;103253.84;;;13.39;46.73
82951;BME280;72737;53.332;6.514;2024-01-11T12:26:57;103252.16;;;13.38;47.22
82951;BME280;72737;53.332;6.514;2024-01-11T12:29:25;103240.31;;;13.44;47.08
82951;BME280;72737;53.332;6.514;2024-01-11T12:31:51;103241.78;;;13.47;47.80
82951;BME280;72737;53.332;6.514;2024-01-11T12:34:17;103241.53;;;13.48;47.27
82951;BME280;72737;53.332;6.514;2024-01-11T12:36:43;103227.41;;;13.51;47.61
82951;BME280;72737;53.332;6.514;2024-01-11T12:39:10;103224.59;;;13.58;48.03
82951;BME280;72737;53.332;6.514;2024-01-11T12:41:38;103218.09;;;13.70;47.66
82951;BME280;72737;53.332;6.514;2024-01-11T12:44:04;103224.56;;;13.88;47.38
82951;BME280;72737;53.332;6.514;2024-01-11T12:46:29;103227.31;;;13.99;47.98